sensor_id;sensor_type;location;lat;lon;timestamp;temperature;humidity
25328;DHT22;13279;51.300;12.394;2022-11-20T00:01:28;-2.90;99.90
25328;DHT22;13279;51.300;12.394;2022-11-20T00:03:56;-2.90;99.90
25328;DHT22;13279;51.300;12.394;2022-11-20T00:06:25;-2.90;99.90
25328;DHT22;13279;51.300;12.394;2022-11-20T00:08:57;-2.90;99.90
25328;DHT22;13279;51.300;12.394;2022-11-20T00:11:27;-2.90;99.90
25328;DHT22;13279;51.300;12.394;2022-11-20T00:13:57;-3.00;99.90
25328;DHT22;13279;51.300;12.394;2022-11-20T00:16:26;-3.00;99.90
25328;DHT22;13279;51.300;12.394;2022-11-20T00:18:54;-3.00;99.90
25328;DHT22;13279;51.300;12.394;2022-11-20T00:21:24;-3.10;99.90
25328;DHT22;13279;51.300;12.394;2022-11-20T00:23:55;-3.10;99.90
25328;DHT22;13279;51.300;12.394;2022-11-20T00:26:24;-3.20;99.90
25328;DHT22;13279;51.300;12.394;2022-11-20T00:28:54;-3.30;99.90
25328;DHT22;13279;51.300;12.394;2022-11-20T00:31:22;-3.30;99.90
25328;DHT22;13279;51.300;12.394;2022-11-20T00:33:50;-3.30;99.90
25328;DHT22;13279;51.300;12.394;2022-11-20T00:36:19;-3.30;99.90
25328;DHT22;13279;51.300;12.394;2022-11-20T00:38:51;-3.30;99.90
25328;DHT22;13279;51.300;12.394;2022-11-20T00:41:21;-3.20;99.90
25328;DHT22;13279;51.300;12.394;2022-11-20T00:43:48;-3.10;99.90
25328;DHT22;13279;51.300;12.394;2022-11-20T00:46:17;-3.10;99.90
25328;DHT22;13279;51.300;12.394;2022-11-20T00:48:45;-3.00;99.90
25328;DHT22;13279;51.300;12.394;2022-11-20T00:51:15;-3.00;99.90
25328;DHT22;13279;51.300;12.394;2022-11-20T00:53:44;-3.00;99.90
25328;DHT22;13279;51.300;12.394;2022-11-20T00:56:13;-3.00;99.90
25328;DHT22;13279;51.300;12.394;2022-11-20T00:58:44;-3.00;99.90
25328;DHT22;13279;51.300;12.394;2022-11-20T01:01:14;-3.00;99.90
25328;DHT22;13279;51.300;12.394;2022-11-20T01:03:43;-2.90;99.90
25328;DHT22;13279;51.300;12.394;2022-11-20T01:06:13;-3.00;99.90
25328;DHT22;13279;51.300;12.394;2022-11-20T01:08:40;-3.00;99.90
25328;DHT22;13279;51.300;12.394;2022-11-20T01:11:10;-3.00;99.90
25328;DHT22;13279;51.300;12.394;2022-11-20T01:13:39;-3.10;99.90
25328;DHT22;13279;51.300;12.394;2022-11-20T01:16:10;-3.10;99.90
25328;DHT22;13279;51.300;12.394;2022-11-20T01:18:40;-3.20;99.90
25328;DHT22;13279;51.300;12.394;2022-11-20T01:21:09;-3.20;99.90
25328;DHT22;13279;51.300;12.394;2022-11-20T01:23:39;-3.20;99.90
25328;DHT22;13279;51.300;12.394;2022-11-20T01:26:08;-3.20;99.90
25328;DHT22;13279;51.300;12.394;2022-11-20T01:28:38;-3.20;99.90
25328;DHT22;13279;51.300;12.394;2022-11-20T01:31:17;-3.20;99.90
25328;DHT22;13279;51.300;12.394;2022-11-20T01:33:47;-3.30;99.90
25328;DHT22;13279;51.300;12.394;2022-11-20T01:36:16;-3.30;99.90
25328;DHT22;13279;51.300;12.394;2022-11-20T01:38:44;-3.30;99.90
25328;DHT22;13279;51.300;12.394;2022-11-20T01:41:13;-3.40;99.90
25328;DHT22;13279;51.300;12.394;2022-11-20T01:44:03;-3.40;99.90
25328;DHT22;13279;51.300;12.394;2022-11-20T01:46:32;-3.50;99.90
25328;DHT22;13279;51.300;12.394;2022-11-20T01:49:02;-3.50;99.90
25328;DHT22;13279;51.300;12.394;2022-11-20T01:51:35;-3.50;99.90
25328;DHT22;13279;51.300;12.394;2022-11-20T01:54:07;-3.50;99.90
25328;DHT22;13279;51.300;12.394;2022-11-20T01:56:38;-3.60;99.90
25328;DHT22;13279;51.300;12.394;2022-11-20T01:59:10;-3.70;99.90
25328;DHT22;13279;51.300;12.394;2022-11-20T02:01:41;-3.70;99.90
25328;DHT22;13279;51.300;12.394;2022-11-20T02:04:10;-3.80;99.90
25328;DHT22;13279;51.300;12.394;2022-11-20T02:06:42;-3.80;99.90
25328;DHT22;13279;51.300;12.394;2022-11-20T02:09:10;-3.90;99.90
25328;DHT22;13279;51.300;12.394;2022-11-20T02:11:38;-4.00;99.90
25328;DHT22;13279;51.300;12.394;2022-11-20T02:14:05;-4.00;99.90
25328;DHT22;13279;51.300;12.394;2022-11-20T02:16:36;-4.00;99.90
25328;DHT22;13279;51.300;12.394;2022-11-20T02:19:08;-4.10;99.90
25328;DHT22;13279;51.300;12.394;2022-11-20T02:21:43;-4.00;99.90
25328;DHT22;13279;51.300;12.394;2022-11-20T02:24:17;-4.10;99.90
25328;DHT22;13279;51.300;12.394;2022-11-20T02:26:49;-4.10;99.90
25328;DHT22;13279;51.300;12.394;2022-11-20T02:29:21;-4.10;99.90
25328;DHT22;13279;51.300;12.394;2022-11-20T02:31:51;-4.10;99.90
25328;DHT22;13279;51.300;12.394;2022-11-20T02:34:20;-4.10;99.90
25328;DHT22;13279;51.300;12.394;2022-11-20T02:36:49;-4.10;99.90
25328;DHT22;13279;51.300;12.394;2022-11-20T02:39:20;-4.10;99.90
25328;DHT22;13279;51.300;12.394;2022-11-20T02:41:50;-4.00;99.90
25328;DHT22;13279;51.300;12.394;2022-11-20T02:44:19;-4.00;99.90
25328;DHT22;13279;51.300;12.394;2022-11-20T02:46:46;-4.00;99.90
25328;DHT22;13279;51.300;12.394;2022-11-20T02:49:14;-4.00;99.90
25328;DHT22;13279;51.300;12.394;2022-11-20T02:51:43;-4.10;99.90
25328;DHT22;13279;51.300;12.394;2022-11-20T02:54:10;-4.10;99.90
25328;DHT22;13279;51.300;12.394;2022-11-20T02:56:39;-4.10;99.90
25328;DHT22;13279;51.300;12.394;2022-11-20T02:59:07;-4.00;99.90
25328;DHT22;13279;51.300;12.394;2022-11-20T03:01:34;-4.10;99.90
25328;DHT22;13279;51.300;12.394;2022-11-20T03:04:03;-4.10;99.90
25328;DHT22;13279;51.300;12.394;2022-11-20T03:06:31;-4.10;99.90
25328;DHT22;13279;51.300;12.394;2022-11-20T03:08:58;-4.10;99.90
25328;DHT22;13279;51.300;12.394;2022-11-20T03:11:26;-4.10;99.90
25328;DHT22;13279;51.300;12.394;2022-11-20T03:13:55;-4.00;99.90
25328;DHT22;13279;51.300;12.394;2022-11-20T03:16:23;-4.10;99.90
25328;DHT22;13279;51.300;12.394;2022-11-20T03:18:52;-4.10;99.90
25328;DHT22;13279;51.300;12.394;2022-11-20T03:21:21;-4.10;99.90
25328;DHT22;13279;51.300;12.394;2022-11-20T03:23:48;-4.10;99.90
25328;DHT22;13279;51.300;12.394;2022-11-20T03:26:17;-4.10;99.90
25328;DHT22;13279;51.300;12.394;2022-11-20T03:28:47;-4.20;99.90
25328;DHT22;13279;51.300;12.394;2022-11-20T03:31:19;-4.10;99.90
25328;DHT22;13279;51.300;12.394;2022-11-20T03:33:46;-4.10;99.90
25328;DHT22;13279;51.300;12.394;2022-11-20T03:36:16;-4.10;99.90
25328;DHT22;13279;51.300;12.394;2022-11-20T03:38:44;-4.10;99.90
25328;DHT22;13279;51.300;12.394;2022-11-20T03:41:13;-4.10;99.90
25328;DHT22;13279;51.300;12.394;2022-11-20T03:43:41;-4.00;99.90
25328;DHT22;13279;51.300;12.394;2022-11-20T03:46:08;-4.10;99.90
25328;DHT22;13279;51.300;12.394;2022-11-20T03:48:37;-4.10;99.90
25328;DHT22;13279;51.300;12.394;2022-11-20T03:51:09;-4.10;99.90
25328;DHT22;13279;51.300;12.394;2022-11-20T03:53:37;-4.00;99.90
25328;DHT22;13279;51.300;12.394;2022-11-20T03:56:05;-4.00;99.90
25328;DHT22;13279;51.300;12.394;2022-11-20T03:58:33;-4.00;99.90
25328;DHT22;13279;51.300;12.394;2022-11-20T04:01:05;-4.00;99.90
25328;DHT22;13279;51.300;12.394;2022-11-20T04:03:33;-4.00;99.90
25328;DHT22;13279;51.300;12.394;2022-11-20T04:06:06;-4.00;99.90
25328;DHT22;13279;51.300;12.394;2022-11-20T04:08:35;-4.00;99.90
25328;DHT22;13279;51.300;12.394;2022-11-20T04:11:10;-4.00;99.90
25328;DHT22;13279;51.300;12.394;2022-11-20T04:13:38;-4.00;99.90
25328;DHT22;13279;51.300;12.394;2022-11-20T04:16:06;-4.00;99.90
25328;DHT22;13279;51.300;12.394;2022-11-20T04:18:35;-4.00;99.90
25328;DHT22;13279;51.300;12.394;2022-11-20T04:21:03;-4.00;99.90
25328;DHT22;13279;51.300;12.394;2022-11-20T04:23:32;-4.00;99.90
25328;DHT22;13279;51.300;12.394;2022-11-20T04:26:04;-4.00;99.90
25328;DHT22;13279;51.300;12.394;2022-11-20T04:28:31;-4.10;99.90
25328;DHT22;13279;51.300;12.394;2022-11-20T04:31:03;-4.10;99.90
25328;DHT22;13279;51.300;12.394;2022-11-20T04:33:30;-4.10;99.90
25328;DHT22;13279;51.300;12.394;2022-11-20T04:36:01;-4.10;99.90
25328;DHT22;13279;51.300;12.394;2022-11-20T04:38:29;-4.10;99.90
25328;DHT22;13279;51.300;12.394;2022-11-20T04:40:59;-4.20;99.90
25328;DHT22;13279;51.300;12.394;2022-11-20T04:43:27;-4.10;99.90
25328;DHT22;13279;51.300;12.394;2022-11-20T04:45:55;-4.10;99.90
25328;DHT22;13279;51.300;12.394;2022-11-20T04:48:24;-4.10;99.90
25328;DHT22;13279;51.300;12.394;2022-11-20T04:50:52;-4.10;99.90
25328;DHT22;13279;51.300;12.394;2022-11-20T04:53:20;-4.10;99.90
25328;DHT22;13279;51.300;12.394;2022-11-20T04:55:48;-4.10;99.90
25328;DHT22;13279;51.300;12.394;2022-11-20T04:58:17;-4.10;99.90
25328;DHT22;13279;51.300;12.394;2022-11-20T05:00:44;-4.20;99.90
25328;DHT22;13279;51.300;12.394;2022-11-20T05:03:12;-4.20;99.90
25328;DHT22;13279;51.300;12.394;2022-11-20T05:05:39;-4.30;99.90
25328;DHT22;13279;51.300;12.394;2022-11-20T05:08:07;-4.30;99.90
25328;DHT22;13279;51.300;12.394;2022-11-20T05:10:34;-4.30;99.90
25328;DHT22;13279;51.300;12.394;2022-11-20T05:13:02;-4.30;99.90
25328;DHT22;13279;51.300;12.394;2022-11-20T05:15:30;-4.30;99.90
25328;DHT22;13279;51.300;12.394;2022-11-20T05:17:59;-4.40;99.90
25328;DHT22;13279;51.300;12.394;2022-11-20T05:20:26;-4.20;99.90
25328;DHT22;13279;51.300;12.394;2022-11-20T05:22:56;-4.30;99.90
25328;DHT22;13279;51.300;12.394;2022-11-20T05:25:23;-4.30;99.90
25328;DHT22;13279;51.300;12.394;2022-11-20T05:27:51;-4.30;99.90
25328;DHT22;13279;51.300;12.394;2022-11-20T05:30:19;-4.30;99.90
25328;DHT22;13279;51.300;12.394;2022-11-20T05:32:47;-4.40;99.90
25328;DHT22;13279;51.300;12.394;2022-11-20T05:35:15;-4.30;99.90
25328;DHT22;13279;51.300;12.394;2022-11-20T05:37:42;-4.40;99.90
25328;DHT22;13279;51.300;12.394;2022-11-20T05:40:11;-4.40;99.90
25328;DHT22;13279;51.300;12.394;2022-11-20T05:42:38;-4.40;99.90
25328;DHT22;13279;51.300;12.394;2022-11-20T05:45:07;-4.40;99.90
25328;DHT22;13279;51.300;12.394;2022-11-20T05:47:35;-4.40;99.90
25328;DHT22;13279;51.300;12.394;2022-11-20T05:50:04;-4.50;99.90
25328;DHT22;13279;51.300;12.394;2022-11-20T05:52:31;-4.50;99.90
25328;DHT22;13279;51.300;12.394;2022-11-20T05:54:59;-4.50;99.90
25328;DHT22;13279;51.300;12.394;2022-11-20T05:57:26;-4.50;99.90
25328;DHT22;13279;51.300;12.394;2022-11-20T05:59:54;-4.50;99.90
25328;DHT22;13279;51.300;12.394;2022-11-20T06:02:21;-4.40;99.90
25328;DHT22;13279;51.300;12.394;2022-11-20T06:04:49;-4.50;99.90
25328;DHT22;13279;51.300;12.394;2022-11-20T06:07:18;-4.50;99.90
25328;DHT22;13279;51.300;12.394;2022-11-20T06:09:45;-4.40;99.90
25328;DHT22;13279;51.300;12.394;2022-11-20T06:12:12;-4.40;99.90
25328;DHT22;13279;51.300;12.394;2022-11-20T06:14:40;-4.50;99.90
25328;DHT22;13279;51.300;12.394;2022-11-20T06:17:08;-4.40;99.90
25328;DHT22;13279;51.300;12.394;2022-11-20T06:19:35;-4.50;99.90
25328;DHT22;13279;51.300;12.394;2022-11-20T06:22:02;-4.50;99.90
25328;DHT22;13279;51.300;12.394;2022-11-20T06:24:31;-4.50;99.90
25328;DHT22;13279;51.300;12.394;2022-11-20T06:26:59;-4.50;99.90
25328;DHT22;13279;51.300;12.394;2022-11-20T06:29:26;-4.50;99.90
25328;DHT22;13279;51.300;12.394;2022-11-20T06:31:55;-4.50;99.90
25328;DHT22;13279;51.300;12.394;2022-11-20T06:34:22;-4.50;99.90
25328;DHT22;13279;51.300;12.394;2022-11-20T06:36:49;-4.60;99.90
25328;DHT22;13279;51.300;12.394;2022-11-20T06:39:17;-4.50;99.90
25328;DHT22;13279;51.300;12.394;2022-11-20T06:41:46;-4.50;99.90
25328;DHT22;13279;51.300;12.394;2022-11-20T06:44:13;-4.60;99.90
25328;DHT22;13279;51.300;12.394;2022-11-20T06:46:41;-4.50;99.90
25328;DHT22;13279;51.300;12.394;2022-11-20T06:49:08;-4.50;99.90
25328;DHT22;13279;51.300;12.394;2022-11-20T06:51:36;-4.50;99.90
25328;DHT22;13279;51.300;12.394;2022-11-20T06:54:05;-4.50;99.90
25328;DHT22;13279;51.300;12.394;2022-11-20T06:56:33;-4.50;99.90
25328;DHT22;13279;51.300;12.394;2022-11-20T06:59:05;-4.40;99.90
25328;DHT22;13279;51.300;12.394;2022-11-20T07:01:33;-4.40;99.90
25328;DHT22;13279;51.300;12.394;2022-11-20T07:04:00;-4.40;99.90
25328;DHT22;13279;51.300;12.394;2022-11-20T07:06:28;-4.40;99.90
25328;DHT22;13279;51.300;12.394;2022-11-20T07:08:56;-4.40;99.90
25328;DHT22;13279;51.300;12.394;2022-11-20T07:11:23;-4.40;99.90
25328;DHT22;13279;51.300;12.394;2022-11-20T07:13:51;-4.30;99.90
25328;DHT22;13279;51.300;12.394;2022-11-20T07:16:20;-4.40;99.90
25328;DHT22;13279;51.300;12.394;2022-11-20T07:18:47;-4.40;99.90
25328;DHT22;13279;51.300;12.394;2022-11-20T07:21:15;-4.40;99.90
25328;DHT22;13279;51.300;12.394;2022-11-20T07:23:42;-4.40;99.90
25328;DHT22;13279;51.300;12.394;2022-11-20T07:26:10;-4.30;99.90
25328;DHT22;13279;51.300;12.394;2022-11-20T07:28:38;-4.30;99.90
25328;DHT22;13279;51.300;12.394;2022-11-20T07:31:06;-4.30;99.90
25328;DHT22;13279;51.300;12.394;2022-11-20T07:33:35;-4.20;99.90
25328;DHT22;13279;51.300;12.394;2022-11-20T07:36:03;-4.10;99.90
25328;DHT22;13279;51.300;12.394;2022-11-20T07:38:30;-4.00;99.90
25328;DHT22;13279;51.300;12.394;2022-11-20T07:40:57;-3.80;99.90
25328;DHT22;13279;51.300;12.394;2022-11-20T07:43:27;-3.70;99.90
25328;DHT22;13279;51.300;12.394;2022-11-20T07:45:55;-3.60;99.90
25328;DHT22;13279;51.300;12.394;2022-11-20T07:48:23;-3.40;99.90
25328;DHT22;13279;51.300;12.394;2022-11-20T07:50:54;-3.30;99.90
25328;DHT22;13279;51.300;12.394;2022-11-20T07:53:22;-3.10;99.90
25328;DHT22;13279;51.300;12.394;2022-11-20T07:55:50;-3.00;99.90
25328;DHT22;13279;51.300;12.394;2022-11-20T07:58:18;-2.70;99.90
25328;DHT22;13279;51.300;12.394;2022-11-20T08:00:46;-2.60;99.90
25328;DHT22;13279;51.300;12.394;2022-11-20T08:03:13;-2.50;99.90
25328;DHT22;13279;51.300;12.394;2022-11-20T08:05:41;-2.40;99.90
25328;DHT22;13279;51.300;12.394;2022-11-20T08:08:10;-2.30;99.90
25328;DHT22;13279;51.300;12.394;2022-11-20T08:10:37;-2.30;99.90
25328;DHT22;13279;51.300;12.394;2022-11-20T08:13:04;-2.20;99.90
25328;DHT22;13279;51.300;12.394;2022-11-20T08:15:50;-2.10;99.90
25328;DHT22;13279;51.300;12.394;2022-11-20T08:18:17;-1.90;99.90
25328;DHT22;13279;51.300;12.394;2022-11-20T08:20:45;-1.80;99.90
25328;DHT22;13279;51.300;12.394;2022-11-20T08:23:14;-1.80;99.90
25328;DHT22;13279;51.300;12.394;2022-11-20T08:25:41;-1.60;99.90
25328;DHT22;13279;51.300;12.394;2022-11-20T08:28:09;-1.40;99.90
25328;DHT22;13279;51.300;12.394;2022-11-20T08:30:37;-1.50;99.90
25328;DHT22;13279;51.300;12.394;2022-11-20T08:33:09;-1.50;99.90
25328;DHT22;13279;51.300;12.394;2022-11-20T08:35:38;-1.70;99.90
25328;DHT22;13279;51.300;12.394;2022-11-20T08:38:08;-1.60;99.90
25328;DHT22;13279;51.300;12.394;2022-11-20T08:40:38;-1.60;99.90
25328;DHT22;13279;51.300;12.394;2022-11-20T08:43:06;-1.50;99.90
25328;DHT22;13279;51.300;12.394;2022-11-20T08:45:33;-1.50;99.90
25328;DHT22;13279;51.300;12.394;2022-11-20T08:48:02;-1.50;99.90
25328;DHT22;13279;51.300;12.394;2022-11-20T08:50:29;-1.50;99.90
25328;DHT22;13279;51.300;12.394;2022-11-20T08:53:02;-1.40;99.90
25328;DHT22;13279;51.300;12.394;2022-11-20T08:55:30;-1.30;99.90
25328;DHT22;13279;51.300;12.394;2022-11-20T08:58:06;-1.40;99.90
25328;DHT22;13279;51.300;12.394;2022-11-20T09:00:34;-1.60;99.90
25328;DHT22;13279;51.300;12.394;2022-11-20T09:03:01;-1.50;99.90
25328;DHT22;13279;51.300;12.394;2022-11-20T09:05:29;-1.40;99.90
25328;DHT22;13279;51.300;12.394;2022-11-20T09:07:57;-1.40;99.90
25328;DHT22;13279;51.300;12.394;2022-11-20T09:10:24;-1.10;99.90
25328;DHT22;13279;51.300;12.394;2022-11-20T09:12:52;-0.90;99.90
25328;DHT22;13279;51.300;12.394;2022-11-20T09:15:22;-0.90;99.90
25328;DHT22;13279;51.300;12.394;2022-11-20T09:17:53;-0.70;99.90
25328;DHT22;13279;51.300;12.394;2022-11-20T09:20:20;-0.70;99.90
25328;DHT22;13279;51.300;12.394;2022-11-20T09:22:47;-0.80;99.90
25328;DHT22;13279;51.300;12.394;2022-11-20T09:25:18;-0.60;99.90
25328;DHT22;13279;51.300;12.394;2022-11-20T09:27:45;-0.40;99.90
25328;DHT22;13279;51.300;12.394;2022-11-20T09:30:14;-0.60;99.90
25328;DHT22;13279;51.300;12.394;2022-11-20T09:32:43;-0.90;99.90
25328;DHT22;13279;51.300;12.394;2022-11-20T09:35:10;-1.00;99.90
25328;DHT22;13279;51.300;12.394;2022-11-20T09:37:38;-1.10;99.90
25328;DHT22;13279;51.300;12.394;2022-11-20T09:40:08;-1.10;99.90
25328;DHT22;13279;51.300;12.394;2022-11-20T09:42:47;-0.80;99.90
25328;DHT22;13279;51.300;12.394;2022-11-20T09:45:23;-0.60;88.00
25328;DHT22;13279;51.300;12.394;2022-11-20T09:48:09;-0.50;61.30
25328;DHT22;13279;51.300;12.394;2022-11-20T09:50:43;-0.50;28.50
25328;DHT22;13279;51.300;12.394;2022-11-20T09:53:19;-0.40;63.90
25328;DHT22;13279;51.300;12.394;2022-11-20T09:55:51;-0.50;26.60
25328;DHT22;13279;51.300;12.394;2022-11-20T09:58:27;-0.70;80.20
25328;DHT22;13279;51.300;12.394;2022-11-20T10:01:08;-0.70;99.90
25328;DHT22;13279;51.300;12.394;2022-11-20T10:03:45;-0.70;93.90
25328;DHT22;13279;51.300;12.394;2022-11-20T10:06:19;-0.70;99.90
25328;DHT22;13279;51.300;12.394;2022-11-20T10:08:58;-0.90;99.90
25328;DHT22;13279;51.300;12.394;2022-11-20T10:11:36;-0.90;99.90
25328;DHT22;13279;51.300;12.394;2022-11-20T10:14:17;-0.80;99.90
25328;DHT22;13279;51.300;12.394;2022-11-20T10:16:56;-0.90;99.90
25328;DHT22;13279;51.300;12.394;2022-11-20T10:19:42;-0.50;99.90
25328;DHT22;13279;51.300;12.394;2022-11-20T10:22:23;-0.30;99.90
25328;DHT22;13279;51.300;12.394;2022-11-20T10:24:56;-0.40;99.90
25328;DHT22;13279;51.300;12.394;2022-11-20T10:27:41;-0.20;99.90
25328;DHT22;13279;51.300;12.394;2022-11-20T10:30:13;-0.30;99.90
25328;DHT22;13279;51.300;12.394;2022-11-20T10:32:43;-0.40;99.90
25328;DHT22;13279;51.300;12.394;2022-11-20T10:35:19;-0.30;99.90
25328;DHT22;13279;51.300;12.394;2022-11-20T10:37:50;-0.30;99.90
25328;DHT22;13279;51.300;12.394;2022-11-20T10:40:27;-0.30;99.90
25328;DHT22;13279;51.300;12.394;2022-11-20T10:42:59;-0.30;99.90
25328;DHT22;13279;51.300;12.394;2022-11-20T10:45:39;-0.20;99.90
25328;DHT22;13279;51.300;12.394;2022-11-20T10:48:21;-0.30;99.90
25328;DHT22;13279;51.300;12.394;2022-11-20T10:51:01;-0.20;99.90
25328;DHT22;13279;51.300;12.394;2022-11-20T10:53:54;0.00;99.90
25328;DHT22;13279;51.300;12.394;2022-11-20T10:56:29;0.00;99.90
25328;DHT22;13279;51.300;12.394;2022-11-20T10:59:08;0.10;99.90
25328;DHT22;13279;51.300;12.394;2022-11-20T11:01:42;0.00;99.90
25328;DHT22;13279;51.300;12.394;2022-11-20T11:04:21;0.10;99.90
25328;DHT22;13279;51.300;12.394;2022-11-20T11:06:56;0.20;99.90
25328;DHT22;13279;51.300;12.394;2022-11-20T11:09:35;0.40;99.90
25328;DHT22;13279;51.300;12.394;2022-11-20T11:12:07;0.60;99.90
25328;DHT22;13279;51.300;12.394;2022-11-20T11:14:46;0.60;11.10
25328;DHT22;13279;51.300;12.394;2022-11-20T11:17:23;0.60;19.10
25328;DHT22;13279;51.300;12.394;2022-11-20T11:20:01;0.40;24.30
25328;DHT22;13279;51.300;12.394;2022-11-20T11:22:32;0.20;28.70
25328;DHT22;13279;51.300;12.394;2022-11-20T11:25:00;0.10;89.40
25328;DHT22;13279;51.300;12.394;2022-11-20T11:27:27;0.00;95.10
25328;DHT22;13279;51.300;12.394;2022-11-20T11:30:11;0.00;99.90
25328;DHT22;13279;51.300;12.394;2022-11-20T11:32:40;0.10;99.90
25328;DHT22;13279;51.300;12.394;2022-11-20T11:35:20;0.00;99.90
25328;DHT22;13279;51.300;12.394;2022-11-20T11:37:54;0.00;90.30
25328;DHT22;13279;51.300;12.394;2022-11-20T11:40:22;0.10;99.90
25328;DHT22;13279;51.300;12.394;2022-11-20T11:42:57;0.10;99.90
25328;DHT22;13279;51.300;12.394;2022-11-20T11:45:26;0.10;90.60
25328;DHT22;13279;51.300;12.394;2022-11-20T11:47:54;0.10;99.90
25328;DHT22;13279;51.300;12.394;2022-11-20T11:50:24;0.00;99.90
25328;DHT22;13279;51.300;12.394;2022-11-20T11:56:05;-0.10;99.90
25328;DHT22;13279;51.300;12.394;2022-11-20T11:58:44;-0.10;99.90
25328;DHT22;13279;51.300;12.394;2022-11-20T12:01:24;0.00;99.90
25328;DHT22;13279;51.300;12.394;2022-11-20T12:04:02;0.10;99.90
25328;DHT22;13279;51.300;12.394;2022-11-20T12:06:33;0.30;99.90
25328;DHT22;13279;51.300;12.394;2022-11-20T12:09:05;0.40;99.90
25328;DHT22;13279;51.300;12.394;2022-11-20T12:11:38;0.50;99.90
25328;DHT22;13279;51.300;12.394;2022-11-20T12:14:14;0.50;26.30
25328;DHT22;13279;51.300;12.394;2022-11-20T12:16:45;0.50;25.90
25328;DHT22;13279;51.300;12.394;2022-11-20T12:19:14;0.30;62.10
25328;DHT22;13279;51.300;12.394;2022-11-20T12:21:52;0.30;99.90
25328;DHT22;13279;51.300;12.394;2022-11-20T12:27:45;0.10;99.90
25328;DHT22;13279;51.300;12.394;2022-11-20T12:30:17;0.20;90.60
25328;DHT22;13279;51.300;12.394;2022-11-20T12:33:04;0.30;63.50
25328;DHT22;13279;51.300;12.394;2022-11-20T12:35:55;0.40;5.10
25328;DHT22;13279;51.300;12.394;2022-11-20T12:38:40;0.30;26.00
25328;DHT22;13279;51.300;12.394;2022-11-20T12:41:15;0.40;68.80
25328;DHT22;13279;51.300;12.394;2022-11-20T12:44:19;0.50;1.00
25328;DHT22;13279;51.300;12.394;2022-11-20T12:47:15;0.60;1.00
25328;DHT22;13279;51.300;12.394;2022-11-20T12:49:48;0.70;1.00
25328;DHT22;13279;51.300;12.394;2022-11-20T12:52:31;0.80;1.00
25328;DHT22;13279;51.300;12.394;2022-11-20T12:55:16;0.80;1.00
25328;DHT22;13279;51.300;12.394;2022-11-20T12:57:52;1.00;1.00
25328;DHT22;13279;51.300;12.394;2022-11-20T13:00:23;1.00;1.00
25328;DHT22;13279;51.300;12.394;2022-11-20T13:05:53;1.40;1.00
25328;DHT22;13279;51.300;12.394;2022-11-20T13:08:25;1.40;1.00
25328;DHT22;13279;51.300;12.394;2022-11-20T13:10:58;1.50;1.00
25328;DHT22;13279;51.300;12.394;2022-11-20T13:13:35;1.80;1.00
25328;DHT22;13279;51.300;12.394;2022-11-20T13:16:12;2.10;1.00
25328;DHT22;13279;51.300;12.394;2022-11-20T13:18:43;2.30;1.00
25328;DHT22;13279;51.300;12.394;2022-11-20T13:21:16;2.40;1.00
25328;DHT22;13279;51.300;12.394;2022-11-20T13:23:44;2.50;1.00
25328;DHT22;13279;51.300;12.394;2022-11-20T13:26:17;2.70;1.00
25328;DHT22;13279;51.300;12.394;2022-11-20T13:28:47;3.00;1.00
25328;DHT22;13279;51.300;12.394;2022-11-20T13:31:31;3.20;1.00
25328;DHT22;13279;51.300;12.394;2022-11-20T13:34:01;3.20;99.90
25328;DHT22;13279;51.300;12.394;2022-11-20T13:36:30;2.90;1.00
25328;DHT22;13279;51.300;12.394;2022-11-20T13:38:58;3.00;1.00
25328;DHT22;13279;51.300;12.394;2022-11-20T13:41:28;3.20;1.00
25328;DHT22;13279;51.300;12.394;2022-11-20T13:43:59;3.30;99.90
25328;DHT22;13279;51.300;12.394;2022-11-20T13:46:38;3.50;99.90
25328;DHT22;13279;51.300;12.394;2022-11-20T13:49:08;3.80;99.90
25328;DHT22;13279;51.300;12.394;2022-11-20T13:51:42;4.10;99.90
25328;DHT22;13279;51.300;12.394;2022-11-20T13:54:41;4.30;4.50
25328;DHT22;13279;51.300;12.394;2022-11-20T13:57:34;4.50;1.00
25328;DHT22;13279;51.300;12.394;2022-11-20T14:00:11;4.10;1.00
25328;DHT22;13279;51.300;12.394;2022-11-20T14:02:40;4.20;99.90
25328;DHT22;13279;51.300;12.394;2022-11-20T14:05:17;4.40;99.90
25328;DHT22;13279;51.300;12.394;2022-11-20T14:07:47;4.60;99.90
25328;DHT22;13279;51.300;12.394;2022-11-20T14:10:34;4.80;99.90
25328;DHT22;13279;51.300;12.394;2022-11-20T14:13:10;4.70;99.90
25328;DHT22;13279;51.300;12.394;2022-11-20T14:15:38;4.70;28.60
25328;DHT22;13279;51.300;12.394;2022-11-20T14:18:14;4.50;99.90
25328;DHT22;13279;51.300;12.394;2022-11-20T14:20:43;4.50;99.90
25328;DHT22;13279;51.300;12.394;2022-11-20T14:23:10;4.70;99.90
25328;DHT22;13279;51.300;12.394;2022-11-20T14:25:42;4.90;1.00
25328;DHT22;13279;51.300;12.394;2022-11-20T14:28:11;4.60;99.90
25328;DHT22;13279;51.300;12.394;2022-11-20T14:30:47;4.40;99.90
25328;DHT22;13279;51.300;12.394;2022-11-20T14:33:17;4.50;99.90
25328;DHT22;13279;51.300;12.394;2022-11-20T14:35:47;4.60;63.90
25328;DHT22;13279;51.300;12.394;2022-11-20T14:38:17;4.70;1.00
25328;DHT22;13279;51.300;12.394;2022-11-20T14:40:46;4.50;53.70
25328;DHT22;13279;51.300;12.394;2022-11-20T14:43:19;4.10;99.90
25328;DHT22;13279;51.300;12.394;2022-11-20T14:45:52;3.90;99.90
25328;DHT22;13279;51.300;12.394;2022-11-20T14:48:29;3.80;99.90
25328;DHT22;13279;51.300;12.394;2022-11-20T14:50:57;3.70;1.00
25328;DHT22;13279;51.300;12.394;2022-11-20T14:53:25;3.70;1.00
25328;DHT22;13279;51.300;12.394;2022-11-20T14:55:57;3.30;1.00
25328;DHT22;13279;51.300;12.394;2022-11-20T14:58:27;2.90;1.00
25328;DHT22;13279;51.300;12.394;2022-11-20T15:00:57;2.50;1.00
25328;DHT22;13279;51.300;12.394;2022-11-20T15:03:35;2.10;1.00
25328;DHT22;13279;51.300;12.394;2022-11-20T15:06:04;1.80;1.00
25328;DHT22;13279;51.300;12.394;2022-11-20T15:08:32;1.60;1.00
25328;DHT22;13279;51.300;12.394;2022-11-20T15:11:00;1.30;1.00
25328;DHT22;13279;51.300;12.394;2022-11-20T15:13:31;1.20;1.00
25328;DHT22;13279;51.300;12.394;2022-11-20T15:16:00;1.00;1.00
25328;DHT22;13279;51.300;12.394;2022-11-20T15:18:36;0.90;1.00
25328;DHT22;13279;51.300;12.394;2022-11-20T15:21:10;0.80;1.00
25328;DHT22;13279;51.300;12.394;2022-11-20T15:23:38;0.70;16.20
25328;DHT22;13279;51.300;12.394;2022-11-20T15:26:06;0.70;20.40
25328;DHT22;13279;51.300;12.394;2022-11-20T15:28:35;0.60;38.60
25328;DHT22;13279;51.300;12.394;2022-11-20T15:31:04;0.40;67.90
25328;DHT22;13279;51.300;12.394;2022-11-20T15:33:33;0.40;92.90
25328;DHT22;13279;51.300;12.394;2022-11-20T15:36:00;0.40;94.50
25328;DHT22;13279;51.300;12.394;2022-11-20T15:38:28;0.40;93.10
25328;DHT22;13279;51.300;12.394;2022-11-20T15:40:56;0.30;91.10
25328;DHT22;13279;51.300;12.394;2022-11-20T15:43:23;0.30;99.90
25328;DHT22;13279;51.300;12.394;2022-11-20T15:45:55;0.30;99.90
25328;DHT22;13279;51.300;12.394;2022-11-20T15:48:25;0.20;99.90
25328;DHT22;13279;51.300;12.394;2022-11-20T15:50:57;0.20;99.90
25328;DHT22;13279;51.300;12.394;2022-11-20T15:53:26;0.20;99.90
25328;DHT22;13279;51.300;12.394;2022-11-20T15:55:53;0.20;99.90